Time;durP1;ratioP1;P1;durP2;ratioP2;P2;SDS_P1;SDS_P2;PMS_P1;PMS_P2;Temp;Humidity;BMP_temperature;BMP_pressure;BME280_temperature;BME280_humidity;BME280_pressure;Samples;Min_cycle;Max_cycle;Signal;HPM_P1;HPM_P2
2023/08/30 00:00:34;;;;;;;10.52;1.73;;;;;;;;;;6184243;23;20469;-43
2023/08/30 00:03:02;;;;;;;7.15;1.85;;;;;;;;;;6173180;23;20096;-42
2023/08/30 00:05:30;;;;;;;8.00;1.30;;;;;;;;;;6186098;23;20184;-42
2023/08/30 00:07:57;;;;;;;9.60;1.85;;;;;;;;;;6170047;23;20027;-44
2023/08/30 00:10:26;;;;;;;8.43;1.63;;;;;;;;;;6191753;23;20120;-46
2023/08/30 00:12:54;;;;;;;10.82;2.35;;;;;;;;;;6175140;23;20027;-43
2023/08/30 00:15:25;;;;;;;9.02;1.90;;;;;;;;;;6184840;23;20021;-43
2023/08/30 00:17:53;;;;;;;11.20;2.70;;;;;;;;;;6170133;23;20028;-42
2023/08/30 00:20:20;;;;;;;8.88;2.03;;;;;;;;;;6177763;23;20427;-44
2023/08/30 00:22:49;;;;;;;9.88;2.20;;;;;;;;;;6176594;23;20028;-44
2023/08/30 00:25:18;;;;;;;8.57;2.25;;;;;;;;;;6172652;23;20017;-42
2023/08/30 00:27:48;;;;;;;6.32;1.50;;;;;;;;;;6189034;23;20383;-45
2023/08/30 00:30:15;;;;;;;6.60;1.50;;;;;;;;;;6166833;23;20462;-44
2023/08/30 00:32:44;;;;;;;10.40;2.00;;;;;;;;;;6184686;23;20020;-42
2023/08/30 00:35:12;;;;;;;7.93;1.77;;;;;;;;;;6172552;23;20020;-42
2023/08/30 00:37:40;;;;;;;8.27;2.08;;;;;;;;;;6185949;23;20021;-42
2023/08/30 00:40:08;;;;;;;14.50;1.92;;;;;;;;;;6167044;23;20554;-43
2023/08/30 00:42:36;;;;;;;9.77;1.93;;;;;;;;;;6144816;23;20028;-44
2023/08/30 00:45:06;;;;;;;6.97;1.42;;;;;;;;;;6176641;23;20436;-42
2023/08/30 00:47:34;;;;;;;11.27;2.10;;;;;;;;;;6184197;23;20027;-42
2023/08/30 00:50:02;;;;;;;10.45;2.70;;;;;;;;;;6171869;23;20017;-42
2023/08/30 00:52:30;;;;;;;10.75;2.22;;;;;;;;;;6187664;23;20021;-43
2023/08/30 00:54:58;;;;;;;10.93;2.03;;;;;;;;;;6182909;23;20019;-42
2023/08/30 00:57:25;;;;;;;9.35;2.00;;;;;;;;;;6188724;23;20087;-46
2023/08/30 00:59:54;;;;;;;9.23;2.40;;;;;;;;;;6166745;23;20032;-42
2023/08/30 01:02:27;;;;;;;11.38;2.28;;;;;;;;;;6189226;23;20027;-42
2023/08/30 01:04:56;;;;;;;9.18;2.38;;;;;;;;;;6179823;23;20047;-43
2023/08/30 01:07:24;;;;;;;9.87;2.80;;;;;;;;;;6176120;23;20332;-42
2023/08/30 01:09:54;;;;;;;9.38;2.10;;;;;;;;;;6177984;23;20021;-42
2023/08/30 01:12:28;;;;;;;10.77;2.28;;;;;;;;;;6187121;23;20021;-42
2023/08/30 01:15:00;;;;;;;7.65;2.00;;;;;;;;;;6186672;23;20188;-42
2023/08/30 01:17:30;;;;;;;9.98;2.40;;;;;;;;;;6175754;23;20017;-42
2023/08/30 01:19:59;;;;;;;9.87;1.90;;;;;;;;;;6184581;23;20017;-42
2023/08/30 01:22:31;;;;;;;10.02;2.28;;;;;;;;;;6175951;23;20366;-45
2023/08/30 01:25:10;;;;;;;7.93;2.45;;;;;;;;;;6182960;23;20023;-42
2023/08/30 01:27:39;;;;;;;8.88;1.77;;;;;;;;;;6188718;23;20032;-44
2023/08/30 01:30:09;;;;;;;9.88;1.92;;;;;;;;;;6174329;23;20560;-43
2023/08/30 01:32:39;;;;;;;10.87;2.30;;;;;;;;;;6186042;23;20016;-43
2023/08/30 01:35:07;;;;;;;10.23;1.90;;;;;;;;;;6175971;23;20023;-44
2023/08/30 01:37:36;;;;;;;9.35;2.53;;;;;;;;;;6172661;23;20031;-43
2023/08/30 01:40:05;;;;;;;10.57;2.33;;;;;;;;;;6174586;23;20017;-45
2023/08/30 01:42:34;;;;;;;8.13;1.90;;;;;;;;;;6173684;23;20499;-44
2023/08/30 01:45:08;;;;;;;11.03;2.30;;;;;;;;;;6182401;23;20040;-45
2023/08/30 01:47:36;;;;;;;10.02;2.22;;;;;;;;;;6175916;23;20016;-43
2023/08/30 01:50:04;;;;;;;8.18;1.80;;;;;;;;;;6192091;23;20019;-44
2023/08/30 01:52:33;;;;;;;8.43;2.05;;;;;;;;;;6174996;23;20423;-42
2023/08/30 01:55:03;;;;;;;9.43;2.08;;;;;;;;;;6187337;23;20474;-46
2023/08/30 01:57:35;;;;;;;9.67;1.90;;;;;;;;;;6190259;23;20432;-43
2023/08/30 02:00:05;;;;;;;8.50;1.80;;;;;;;;;;6194378;23;20024;-42
2023/08/30 02:02:34;;;;;;;9.93;2.10;;;;;;;;;;6180973;23;20036;-42
2023/08/30 02:05:02;;;;;;;12.95;2.10;;;;;;;;;;6188901;23;20017;-42
2023/08/30 02:07:31;;;;;;;11.35;2.55;;;;;;;;;;6175003;23;20727;-42
2023/08/30 02:10:01;;;;;;;7.67;2.10;;;;;;;;;;6173643;23;20100;-44
2023/08/30 02:12:32;;;;;;;8.98;2.35;;;;;;;;;;6187160;23;20383;-42
2023/08/30 02:15:01;;;;;;;9.18;2.00;;;;;;;;;;6178693;23;20031;-42
2023/08/30 02:17:30;;;;;;;7.70;2.60;;;;;;;;;;6189440;23;20017;-41
2023/08/30 02:19:58;;;;;;;14.43;2.30;;;;;;;;;;6184825;23;20017;-43
2023/08/30 02:22:26;;;;;;;7.73;2.30;;;;;;;;;;6193620;23;20047;-42
2023/08/30 02:24:54;;;;;;;11.43;2.80;;;;;;;;;;6173528;23;20027;-42
2023/08/30 02:27:21;;;;;;;9.30;1.95;;;;;;;;;;6187562;23;20079;-42
2023/08/30 02:29:52;;;;;;;10.38;2.55;;;;;;;;;;6184646;23;20070;-43
2023/08/30 02:32:20;;;;;;;10.45;2.38;;;;;;;;;;6193621;23;20119;-43
2023/08/30 02:34:52;;;;;;;7.73;2.13;;;;;;;;;;6179504;23;20017;-44
2023/08/30 02:37:20;;;;;;;9.50;2.13;;;;;;;;;;6185938;23;20025;-42
2023/08/30 02:39:47;;;;;;;13.25;2.78;;;;;;;;;;6176304;23;20023;-43
2023/08/30 02:42:15;;;;;;;12.45;2.83;;;;;;;;;;6185518;23;20075;-42
2023/08/30 02:44:43;;;;;;;8.88;2.45;;;;;;;;;;6163437;23;20017;-43
2023/08/30 02:47:11;;;;;;;13.90;2.67;;;;;;;;;;6191834;23;20016;-42
2023/08/30 02:49:38;;;;;;;8.52;2.28;;;;;;;;;;6186869;23;20039;-42
2023/08/30 02:52:06;;;;;;;7.63;2.38;;;;;;;;;;6181790;23;20024;-42
2023/08/30 02:54:34;;;;;;;9.05;2.10;;;;;;;;;;6181423;23;20020;-42
2023/08/30 02:57:02;;;;;;;11.70;2.20;;;;;;;;;;6160102;23;20016;-43
2023/08/30 02:59:30;;;;;;;9.77;2.73;;;;;;;;;;6198266;23;20020;-43
2023/08/30 03:01:57;;;;;;;11.20;2.55;;;;;;;;;;6180002;23;20012;-41
2023/08/30 03:04:25;;;;;;;14.23;3.00;;;;;;;;;;6190690;23;20024;-42
2023/08/30 03:07:00;;;;;;;12.07;2.60;;;;;;;;;;6176947;23;20352;-41
2023/08/30 03:09:30;;;;;;;10.93;2.70;;;;;;;;;;6185779;23;20063;-41
2023/08/30 03:11:59;;;;;;;10.23;2.23;;;;;;;;;;6191709;23;20071;-43
2023/08/30 03:14:27;;;;;;;9.48;2.10;;;;;;;;;;6197456;23;20016;-43
2023/08/30 03:16:55;;;;;;;9.85;2.65;;;;;;;;;;6183306;23;20024;-42
2023/08/30 03:19:23;;;;;;;12.43;1.92;;;;;;;;;;6188067;23;20016;-42
2023/08/30 03:21:51;;;;;;;11.13;2.30;;;;;;;;;;6168957;23;20044;-42
2023/08/30 03:24:21;;;;;;;12.90;2.63;;;;;;;;;;6170742;23;20439;-42
2023/08/30 03:26:51;;;;;;;10.15;2.58;;;;;;;;;;6179765;23;20318;-42
2023/08/30 03:29:23;;;;;;;10.13;2.50;;;;;;;;;;6187742;23;20024;-42
2023/08/30 03:31:51;;;;;;;8.05;2.33;;;;;;;;;;6192600;23;20103;-42
2023/08/30 03:34:18;;;;;;;9.05;2.33;;;;;;;;;;6180189;23;20023;-42
2023/08/30 03:36:53;;;;;;;11.07;3.10;;;;;;;;;;6189968;23;20083;-44
2023/08/30 03:39:22;;;;;;;11.38;2.90;;;;;;;;;;6176039;23;20027;-42
2023/08/30 03:41:51;;;;;;;10.98;2.40;;;;;;;;;;6185225;23;20029;-43
2023/08/30 03:44:19;;;;;;;9.55;2.30;;;;;;;;;;6183451;23;20020;-42
2023/08/30 03:46:47;;;;;;;12.30;2.55;;;;;;;;;;6190204;23;20017;-44
2023/08/30 03:49:15;;;;;;;15.27;2.53;;;;;;;;;;6182030;23;20104;-42
2023/08/30 03:51:43;;;;;;;9.93;2.95;;;;;;;;;;6189305;23;20569;-42
2023/08/30 03:54:16;;;;;;;14.23;2.60;;;;;;;;;;6179566;23;20013;-41
2023/08/30 03:56:43;;;;;;;12.73;3.03;;;;;;;;;;6172970;23;20013;-42
2023/08/30 03:59:15;;;;;;;11.55;2.72;;;;;;;;;;6188215;23;20020;-43
2023/08/30 04:01:42;;;;;;;14.10;2.60;;;;;;;;;;6189791;23;20012;-42
2023/08/30 04:04:10;;;;;;;11.60;2.35;;;;;;;;;;6131216;23;20035;-42
2023/08/30 04:06:39;;;;;;;10.63;2.63;;;;;;;;;;6172176;23;20016;-42
2023/08/30 04:09:08;;;;;;;10.55;3.55;;;;;;;;;;6186592;23;20013;-44
2023/08/30 04:11:35;;;;;;;10.15;2.88;;;;;;;;;;6172567;23;20062;-43
2023/08/30 04:14:03;;;;;;;11.77;2.97;;;;;;;;;;6182488;23;20020;-43
2023/08/30 04:16:32;;;;;;;11.05;2.60;;;;;;;;;;6186754;23;20019;-42
2023/08/30 04:19:00;;;;;;;11.00;2.60;;;;;;;;;;6178490;23;20036;-43
2023/08/30 04:21:28;;;;;;;13.75;2.72;;;;;;;;;;6190134;23;20016;-42
2023/08/30 04:23:55;;;;;;;10.18;2.42;;;;;;;;;;6171842;23;20417;-43
2023/08/30 04:26:23;;;;;;;9.73;2.33;;;;;;;;;;6181105;23;20455;-42
2023/08/30 04:28:51;;;;;;;11.80;3.00;;;;;;;;;;6178641;23;20530;-42
2023/08/30 04:31:19;;;;;;;10.05;2.22;;;;;;;;;;6186788;23;20017;-42
2023/08/30 04:33:48;;;;;;;11.32;2.70;;;;;;;;;;6177003;23;20531;-42
2023/08/30 04:36:16;;;;;;;11.68;2.53;;;;;;;;;;6184500;23;20020;-44
2023/08/30 04:38:43;;;;;;;9.93;2.60;;;;;;;;;;6174926;23;20020;-42
2023/08/30 04:41:34;;;;;;;13.68;3.85;;;;;;;;;;6187094;23;20021;-45
2023/08/30 04:44:02;;;;;;;9.80;2.88;;;;;;;;;;6186634;23;20021;-43
2023/08/30 04:46:30;;;;;;;9.63;2.65;;;;;;;;;;6187473;23;20023;-42
2023/08/30 04:48:59;;;;;;;10.95;2.85;;;;;;;;;;6172330;23;20028;-42
2023/08/30 04:51:27;;;;;;;10.57;3.50;;;;;;;;;;6181472;23;20024;-42
2023/08/30 04:54:02;;;;;;;11.57;3.33;;;;;;;;;;6153668;23;20664;-43
2023/08/30 04:56:30;;;;;;;15.32;3.17;;;;;;;;;;6187557;23;20459;-44
2023/08/30 04:58:58;;;;;;;13.18;3.28;;;;;;;;;;6120213;23;20081;-42
2023/08/30 05:01:27;;;;;;;13.98;2.75;;;;;;;;;;6156489;23;20016;-41
2023/08/30 05:03:55;;;;;;;11.97;3.37;;;;;;;;;;6174269;23;20020;-43
2023/08/30 05:06:24;;;;;;;9.25;3.15;;;;;;;;;;6184116;23;20020;-43
2023/08/30 05:08:51;;;;;;;12.30;3.35;;;;;;;;;;6178946;23;20020;-42
2023/08/30 05:11:19;;;;;;;11.88;2.60;;;;;;;;;;6176628;23;20021;-42
2023/08/30 05:13:47;;;;;;;10.80;2.75;;;;;;;;;;6178912;23;20017;-44
2023/08/30 05:16:15;;;;;;;10.53;2.53;;;;;;;;;;6169457;23;20012;-42
2023/08/30 05:18:43;;;;;;;12.95;2.85;;;;;;;;;;6166644;23;20044;-43
2023/08/30 05:21:10;;;;;;;8.90;2.75;;;;;;;;;;6181629;23;20026;-44
2023/08/30 05:23:41;;;;;;;11.07;2.78;;;;;;;;;;6168593;23;20444;-42
2023/08/30 05:26:09;;;;;;;14.82;4.25;;;;;;;;;;6175309;23;20732;-43
2023/08/30 05:28:37;;;;;;;14.60;3.43;;;;;;;;;;6164301;23;20020;-44
2023/08/30 05:31:07;;;;;;;9.07;2.88;;;;;;;;;;6172063;23;20016;-45
2023/08/30 05:33:34;;;;;;;11.07;2.80;;;;;;;;;;6170566;23;20023;-42
2023/08/30 05:36:03;;;;;;;9.95;2.97;;;;;;;;;;6179613;23;20012;-42
2023/08/30 05:38:30;;;;;;;10.65;3.22;;;;;;;;;;6172350;23;20307;-42
2023/08/30 05:40:59;;;;;;;9.53;3.07;;;;;;;;;;6176753;23;20333;-42
2023/08/30 05:43:28;;;;;;;11.75;2.90;;;;;;;;;;6182760;23;20085;-42
2023/08/30 05:46:01;;;;;;;9.55;3.35;;;;;;;;;;6168225;23;20866;-42
2023/08/30 05:48:29;;;;;;;11.90;2.70;;;;;;;;;;6191018;23;20017;-42
2023/08/30 05:50:57;;;;;;;9.02;3.00;;;;;;;;;;6171652;23;20013;-44
2023/08/30 05:53:25;;;;;;;8.53;2.97;;;;;;;;;;6186458;23;20012;-43
2023/08/30 05:55:53;;;;;;;12.32;3.15;;;;;;;;;;6171130;23;20075;-43
2023/08/30 05:58:22;;;;;;;15.07;3.50;;;;;;;;;;6180587;23;20447;-43
2023/08/30 06:00:49;;;;;;;11.75;3.33;;;;;;;;;;6167470;23;20468;-42
2023/08/30 06:03:17;;;;;;;12.55;3.67;;;;;;;;;;6181923;23;20488;-42
2023/08/30 06:05:45;;;;;;;9.90;3.10;;;;;;;;;;6183042;23;20240;-44
2023/08/30 06:08:17;;;;;;;9.50;3.45;;;;;;;;;;6177933;23;20023;-43
2023/08/30 06:10:45;;;;;;;14.20;3.00;;;;;;;;;;6183280;23;20023;-42
2023/08/30 06:13:13;;;;;;;9.80;3.75;;;;;;;;;;6178451;23;20020;-42
2023/08/30 06:15:42;;;;;;;11.60;3.78;;;;;;;;;;6181489;23;20012;-42
2023/08/30 06:18:10;;;;;;;9.27;2.90;;;;;;;;;;6177913;23;20063;-42
2023/08/30 06:20:41;;;;;;;11.90;3.08;;;;;;;;;;6181534;23;20240;-42
2023/08/30 06:23:08;;;;;;;9.45;2.83;;;;;;;;;;6184184;23;20024;-43
2023/08/30 06:25:36;;;;;;;7.63;2.53;;;;;;;;;;6168810;23;20463;-45
2023/08/30 06:28:04;;;;;;;9.50;2.58;;;;;;;;;;6186293;23;20070;-41
2023/08/30 06:30:32;;;;;;;12.73;2.37;;;;;;;;;;6172339;23;20024;-43
2023/08/30 06:33:01;;;;;;;9.38;2.55;;;;;;;;;;6176673;23;20461;-43
2023/08/30 06:35:29;;;;;;;7.63;2.20;;;;;;;;;;6171617;23;20021;-42
2023/08/30 06:37:56;;;;;;;10.38;2.85;;;;;;;;;;6184967;23;20074;-43
2023/08/30 06:40:24;;;;;;;13.45;2.85;;;;;;;;;;6169182;23;20088;-43
2023/08/30 06:42:52;;;;;;;10.60;2.77;;;;;;;;;;6187552;23;20019;-42
2023/08/30 06:45:20;;;;;;;8.13;2.40;;;;;;;;;;6181446;23;20063;-42
2023/08/30 06:47:48;;;;;;;9.15;2.72;;;;;;;;;;6172478;23;20016;-43
2023/08/30 06:50:18;;;;;;;11.80;2.90;;;;;;;;;;6185133;23;20436;-42
2023/08/30 06:52:47;;;;;;;10.27;2.90;;;;;;;;;;6173930;23;20376;-45
2023/08/30 06:55:15;;;;;;;10.27;3.00;;;;;;;;;;6184761;23;20489;-42
2023/08/30 06:57:48;;;;;;;12.70;3.20;;;;;;;;;;6175821;23;20412;-42
2023/08/30 07:00:17;;;;;;;12.20;3.13;;;;;;;;;;6182239;23;20016;-42
2023/08/30 07:02:45;;;;;;;10.40;2.88;;;;;;;;;;6180339;23;20452;-42
2023/08/30 07:05:13;;;;;;;10.07;2.60;;;;;;;;;;6171459;23;20078;-45
2023/08/30 07:07:43;;;;;;;15.23;3.00;;;;;;;;;;6174811;23;20063;-43
2023/08/30 07:10:11;;;;;;;11.35;2.80;;;;;;;;;;6175006;23;20434;-43
2023/08/30 07:12:38;;;;;;;12.40;2.78;;;;;;;;;;6174580;23;20024;-43
2023/08/30 07:15:08;;;;;;;18.75;3.05;;;;;;;;;;6172707;23;20023;-43
2023/08/30 07:17:35;;;;;;;11.43;2.55;;;;;;;;;;6184578;23;20680;-43
2023/08/30 07:20:20;;;;;;;10.17;2.83;;;;;;;;;;6181674;23;20378;-42
2023/08/30 07:22:49;;;;;;;10.27;2.70;;;;;;;;;;6174569;23;20044;-43
2023/08/30 07:25:19;;;;;;;13.43;2.72;;;;;;;;;;6180175;23;20017;-43
2023/08/30 07:27:47;;;;;;;12.35;3.10;;;;;;;;;;6176317;23;20031;-42
2023/08/30 07:30:15;;;;;;;12.75;3.20;;;;;;;;;;6180421;23;20379;-42
2023/08/30 07:32:42;;;;;;;11.57;3.83;;;;;;;;;;6188415;23;20024;-42
2023/08/30 07:35:10;;;;;;;9.52;2.65;;;;;;;;;;6178942;23;20032;-44
2023/08/30 07:37:41;;;;;;;11.18;3.20;;;;;;;;;;6177216;23;20031;-42
2023/08/30 07:40:11;;;;;;;9.95;2.70;;;;;;;;;;6182878;23;20067;-42
2023/08/30 07:42:39;;;;;;;9.30;2.63;;;;;;;;;;6177342;23;20023;-43
2023/08/30 07:45:07;;;;;;;6.90;2.10;;;;;;;;;;6187107;23;20059;-42
2023/08/30 07:47:35;;;;;;;12.00;2.40;;;;;;;;;;6170641;23;20024;-42
2023/08/30 07:50:05;;;;;;;8.73;2.92;;;;;;;;;;6183273;23;20024;-43
2023/08/30 07:52:33;;;;;;;8.68;2.40;;;;;;;;;;6170804;23;20103;-43
2023/08/30 07:55:15;;;;;;;7.40;2.40;;;;;;;;;;6177771;23;20267;-42
2023/08/30 07:57:43;;;;;;;7.27;1.70;;;;;;;;;;6178102;23;20016;-43
2023/08/30 08:00:11;;;;;;;6.20;1.95;;;;;;;;;;6165602;23;20020;-45
2023/08/30 08:02:40;;;;;;;7.53;1.83;;;;;;;;;;6181178;23;20074;-45
2023/08/30 08:05:08;;;;;;;9.20;1.98;;;;;;;;;;6178949;23;20593;-44
2023/08/30 08:07:39;;;;;;;9.38;2.00;;;;;;;;;;6168112;23;20455;-44
2023/08/30 08:10:07;;;;;;;11.33;2.13;;;;;;;;;;6181344;23;20050;-42
2023/08/30 08:12:37;;;;;;;8.02;1.80;;;;;;;;;;6166162;23;20265;-44
2023/08/30 08:15:08;;;;;;;7.25;1.42;;;;;;;;;;6179104;23;20027;-43
2023/08/30 08:17:36;;;;;;;7.55;1.70;;;;;;;;;;6177389;23;20115;-45
2023/08/30 08:20:05;;;;;;;5.70;1.58;;;;;;;;;;6157585;23;20017;-44
2023/08/30 08:22:33;;;;;;;6.93;1.97;;;;;;;;;;6158296;23;20024;-44
2023/08/30 08:25:00;;;;;;;6.95;1.77;;;;;;;;;;6154330;23;20012;-43
2023/08/30 08:27:30;;;;;;;7.57;1.50;;;;;;;;;;6166733;23;20466;-42
2023/08/30 08:29:59;;;;;;;9.02;1.90;;;;;;;;;;6154752;23;20020;-42
2023/08/30 08:32:26;;;;;;;5.38;1.77;;;;;;;;;;6156428;23;20016;-46
2023/08/30 08:34:54;;;;;;;9.70;1.80;;;;;;;;;;6165736;23;20799;-46
2023/08/30 08:37:27;;;;;;;6.90;1.70;;;;;;;;;;6163205;23;20040;-44
2023/08/30 08:39:58;;;;;;;10.80;2.25;;;;;;;;;;6137849;23;20070;-42
2023/08/30 08:42:26;;;;;;;9.10;2.10;;;;;;;;;;6126445;23;20024;-42
2023/08/30 08:44:54;;;;;;;15.00;1.90;;;;;;;;;;6162102;23;20017;-45
2023/08/30 08:47:24;;;;;;;10.37;1.80;;;;;;;;;;6145994;23;20024;-45
2023/08/30 08:49:54;;;;;;;6.22;1.95;;;;;;;;;;6112136;23;20021;-42
2023/08/30 08:52:22;;;;;;;8.45;1.70;;;;;;;;;;6132022;23;20021;-42
2023/08/30 08:55:01;;;;;;;6.85;1.65;;;;;;;;;;6171803;23;20047;-45
2023/08/30 08:57:31;;;;;;;7.05;1.48;;;;;;;;;;6162334;23;20107;-44
2023/08/30 08:59:59;;;;;;;8.43;1.40;;;;;;;;;;6159630;23;20017;-43
2023/08/30 09:02:30;;;;;;;9.07;1.30;;;;;;;;;;6154596;23;20050;-43
2023/08/30 09:04:58;;;;;;;8.15;1.70;;;;;;;;;;6161086;23;20028;-43
2023/08/30 09:07:27;;;;;;;6.22;1.52;;;;;;;;;;6175181;23;20027;-43
2023/08/30 09:09:55;;;;;;;7.80;1.50;;;;;;;;;;6177713;23;20009;-43
2023/08/30 09:12:24;;;;;;;7.53;1.37;;;;;;;;;;6168864;23;20075;-44
2023/08/30 09:15:04;;;;;;;9.20;1.88;;;;;;;;;;6186565;23;20027;-45
2023/08/30 09:17:38;;;;;;;5.93;1.55;;;;;;;;;;6186907;23;20304;-45
2023/08/30 09:20:06;;;;;;;5.50;1.00;;;;;;;;;;6179593;23;20351;-44
2023/08/30 09:22:37;;;;;;;4.20;0.98;;;;;;;;;;6173750;23;20020;-44
2023/08/30 09:25:06;;;;;;;5.33;1.33;;;;;;;;;;6172525;23;20044;-45
2023/08/30 09:27:34;;;;;;;5.60;1.50;;;;;;;;;;6180275;23;20105;-42
2023/08/30 09:30:03;;;;;;;5.75;1.20;;;;;;;;;;6162100;23;20021;-44
2023/08/30 09:32:38;;;;;;;4.78;1.10;;;;;;;;;;6180321;23;20021;-42
2023/08/30 09:35:09;;;;;;;4.80;1.02;;;;;;;;;;6173736;23;20017;-46
2023/08/30 09:37:37;;;;;;;7.83;1.07;;;;;;;;;;6177112;23;20027;-43
2023/08/30 09:40:05;;;;;;;5.72;0.95;;;;;;;;;;6169818;23;20027;-44
2023/08/30 09:42:33;;;;;;;5.90;1.20;;;;;;;;;;6181363;23;20022;-43
2023/08/30 09:45:01;;;;;;;6.32;1.35;;;;;;;;;;6128441;23;20413;-44
2023/08/30 09:47:30;;;;;;;4.47;1.00;;;;;;;;;;6177386;23;20453;-46
2023/08/30 09:49:59;;;;;;;5.73;1.20;;;;;;;;;;6181471;23;20027;-46
2023/08/30 09:52:29;;;;;;;5.20;1.05;;;;;;;;;;6171665;23;20099;-42
2023/08/30 09:54:58;;;;;;;4.05;1.00;;;;;;;;;;6191403;23;20016;-44
2023/08/30 09:57:26;;;;;;;5.75;1.20;;;;;;;;;;6173647;23;20013;-43
2023/08/30 09:59:55;;;;;;;6.82;1.10;;;;;;;;;;6172660;23;20095;-42
2023/08/30 10:02:23;;;;;;;5.43;1.13;;;;;;;;;;6151636;23;20365;-43
2023/08/30 10:04:51;;;;;;;4.20;0.90;;;;;;;;;;6177848;23;20024;-42
2023/08/30 10:07:19;;;;;;;4.47;1.10;;;;;;;;;;6164733;23;20091;-42
2023/08/30 10:09:58;;;;;;;5.38;1.08;;;;;;;;;;6182683;23;20016;-42
2023/08/30 10:12:37;;;;;;;4.20;1.13;;;;;;;;;;6179861;23;20024;-42
2023/08/30 10:15:06;;;;;;;7.53;0.93;;;;;;;;;;6177337;23;20536;-42
2023/08/30 10:17:35;;;;;;;4.53;1.08;;;;;;;;;;6178796;23;20017;-43
2023/08/30 10:20:08;;;;;;;4.18;1.30;;;;;;;;;;6169059;23;20017;-43
2023/08/30 10:22:37;;;;;;;5.47;1.50;;;;;;;;;;6179366;23;20017;-42
2023/08/30 10:25:07;;;;;;;5.43;1.00;;;;;;;;;;6165046;23;20047;-42
2023/08/30 10:27:40;;;;;;;4.50;1.20;;;;;;;;;;6186328;23;20027;-41
2023/08/30 10:30:09;;;;;;;5.57;1.48;;;;;;;;;;6160737;23;20362;-43
2023/08/30 10:32:39;;;;;;;4.00;0.98;;;;;;;;;;6175949;23;20016;-42
2023/08/30 10:35:07;;;;;;;3.63;1.02;;;;;;;;;;6166714;23;20397;-42
2023/08/30 10:37:35;;;;;;;8.57;1.05;;;;;;;;;;6181254;23;20028;-43
2023/08/30 10:40:05;;;;;;;6.17;1.37;;;;;;;;;;6163150;23;20027;-42
2023/08/30 10:42:34;;;;;;;4.72;1.30;;;;;;;;;;6183469;23;20078;-42
2023/08/30 10:45:05;;;;;;;5.40;1.30;;;;;;;;;;6173433;23;20067;-43
2023/08/30 10:47:37;;;;;;;4.07;1.20;;;;;;;;;;6152990;23;20871;-42
2023/08/30 10:50:07;;;;;;;6.65;0.90;;;;;;;;;;6189721;23;20479;-44
2023/08/30 10:52:35;;;;;;;5.20;1.30;;;;;;;;;;6162208;23;20021;-44
2023/08/30 10:55:07;;;;;;;6.40;1.50;;;;;;;;;;6190819;23;20462;-43
2023/08/30 10:57:37;;;;;;;5.18;1.25;;;;;;;;;;6170330;23;20024;-44
2023/08/30 11:00:20;;;;;;;6.70;0.95;;;;;;;;;;6182227;23;20024;-43
2023/08/30 11:02:49;;;;;;;6.03;1.50;;;;;;;;;;6159096;23;20044;-43
2023/08/30 11:05:17;;;;;;;6.13;0.97;;;;;;;;;;6167125;23;20024;-43
2023/08/30 11:07:46;;;;;;;5.03;1.10;;;;;;;;;;6153442;23;20442;-44
2023/08/30 11:10:15;;;;;;;4.13;1.00;;;;;;;;;;6155572;23;20482;-46
2023/08/30 11:12:44;;;;;;;3.97;0.90;;;;;;;;;;6136660;23;20017;-45
2023/08/30 11:15:14;;;;;;;5.03;0.93;;;;;;;;;;6152444;23;20444;-41
2023/08/30 11:17:42;;;;;;;4.87;1.10;;;;;;;;;;6161782;23;20013;-42
2023/08/30 11:20:10;;;;;;;4.85;0.93;;;;;;;;;;6163494;23;20028;-43
2023/08/30 11:22:38;;;;;;;5.10;1.08;;;;;;;;;;6152208;23;20027;-43
2023/08/30 11:25:07;;;;;;;6.22;1.10;;;;;;;;;;6149981;23;20012;-43
2023/08/30 11:27:34;;;;;;;4.93;1.23;;;;;;;;;;6158938;23;20025;-42
2023/08/30 11:30:05;;;;;;;4.87;0.93;;;;;;;;;;6155880;23;20024;-42
2023/08/30 11:32:34;;;;;;;5.20;0.95;;;;;;;;;;6165168;23;20012;-43
2023/08/30 11:35:02;;;;;;;8.13;1.23;;;;;;;;;;6155818;23;20479;-42
2023/08/30 11:37:30;;;;;;;8.60;1.50;;;;;;;;;;6119507;23;20021;-42
2023/08/30 11:39:58;;;;;;;3.90;1.00;;;;;;;;;;6137418;23;20017;-42
2023/08/30 11:42:45;;;;;;;4.30;1.20;;;;;;;;;;6165620;23;20039;-44
2023/08/30 11:45:16;;;;;;;5.68;1.00;;;;;;;;;;6176461;23;20082;-43
2023/08/30 11:47:44;;;;;;;5.68;1.20;;;;;;;;;;6151201;23;20020;-46
2023/08/30 11:50:12;;;;;;;4.90;0.77;;;;;;;;;;6158440;23;20020;-43
2023/08/30 11:52:41;;;;;;;3.97;0.85;;;;;;;;;;6146543;23;20371;-42
2023/08/30 11:55:08;;;;;;;3.80;0.90;;;;;;;;;;6171402;23;20030;-44
2023/08/30 11:57:36;;;;;;;4.55;1.17;;;;;;;;;;6153925;23;20025;-43
2023/08/30 12:00:08;;;;;;;5.35;1.05;;;;;;;;;;6161678;23;20100;-42
2023/08/30 12:02:37;;;;;;;4.40;0.57;;;;;;;;;;6132521;23;20040;-43
2023/08/30 12:05:05;;;;;;;5.03;1.23;;;;;;;;;;6168425;23;20016;-45
2023/08/30 12:07:33;;;;;;;4.73;1.10;;;;;;;;;;6160677;23;20091;-43
2023/08/30 12:10:07;;;;;;;4.90;1.05;;;;;;;;;;6156486;23;20344;-44
2023/08/30 12:12:36;;;;;;;3.55;1.02;;;;;;;;;;6170525;23;20020;-44
2023/08/30 12:15:08;;;;;;;3.65;0.98;;;;;;;;;;6155892;23;20027;-42
2023/08/30 12:17:38;;;;;;;3.63;0.80;;;;;;;;;;6173651;23;20075;-42
2023/08/30 12:20:06;;;;;;;5.63;1.20;;;;;;;;;;6135525;23;20381;-44
2023/08/30 12:22:39;;;;;;;5.65;1.17;;;;;;;;;;6164811;23;20415;-43
2023/08/30 12:25:16;;;;;;;3.40;0.90;;;;;;;;;;6170113;23;20017;-44
2023/08/30 12:27:48;;;;;;;6.30;1.20;;;;;;;;;;6154896;23;20360;-43
2023/08/30 12:30:17;;;;;;;5.30;1.08;;;;;;;;;;6148891;23;20058;-42
2023/08/30 12:32:46;;;;;;;5.73;1.23;;;;;;;;;;6161713;23;20020;-42
2023/08/30 12:35:14;;;;;;;4.97;1.20;;;;;;;;;;6149442;23;20016;-42
2023/08/30 12:37:43;;;;;;;3.63;1.00;;;;;;;;;;6162397;23;20021;-44
2023/08/30 12:40:11;;;;;;;3.85;0.88;;;;;;;;;;6147421;23;20653;-43
2023/08/30 12:42:39;;;;;;;3.78;1.10;;;;;;;;;;6161289;23;20067;-43
2023/08/30 12:45:07;;;;;;;3.47;1.00;;;;;;;;;;6163488;23;20016;-44
2023/08/30 12:47:35;;;;;;;5.05;1.10;;;;;;;;;;6159523;23;20020;-42
2023/08/30 12:50:05;;;;;;;3.53;0.73;;;;;;;;;;6158487;23;20487;-45
2023/08/30 12:52:33;;;;;;;3.97;1.23;;;;;;;;;;6145843;23;20028;-42
2023/08/30 12:55:01;;;;;;;4.90;1.40;;;;;;;;;;6172314;23;20020;-42
2023/08/30 12:57:29;;;;;;;4.97;1.20;;;;;;;;;;6160255;23;20561;-43
2023/08/30 12:59:57;;;;;;;6.97;1.20;;;;;;;;;;6166613;23;20013;-41
2023/08/30 13:02:25;;;;;;;7.15;1.20;;;;;;;;;;6163121;23;20095;-43
2023/08/30 13:04:52;;;;;;;4.15;1.00;;;;;;;;;;6165713;23;20102;-45
2023/08/30 13:07:22;;;;;;;8.10;0.95;;;;;;;;;;6162700;23;20850;-44
2023/08/30 13:09:50;;;;;;;4.50;1.10;;;;;;;;;;6147002;23;20025;-42
2023/08/30 13:12:20;;;;;;;4.60;1.20;;;;;;;;;;6158522;23;20017;-42
2023/08/30 13:14:48;;;;;;;4.38;1.00;;;;;;;;;;6173486;23;20065;-42
2023/08/30 13:17:17;;;;;;;4.50;0.80;;;;;;;;;;6121926;23;20301;-41
2023/08/30 13:19:45;;;;;;;5.10;0.95;;;;;;;;;;6153910;23;20013;-41
2023/08/30 13:22:13;;;;;;;5.97;1.47;;;;;;;;;;6173086;23;20297;-43
2023/08/30 13:24:42;;;;;;;4.63;0.90;;;;;;;;;;6137545;23;20092;-41
2023/08/30 13:27:10;;;;;;;6.10;1.00;;;;;;;;;;6156957;23;20092;-43
2023/08/30 13:29:38;;;;;;;4.78;1.55;;;;;;;;;;6188962;23;20111;-44
2023/08/30 13:32:17;;;;;;;4.20;1.20;;;;;;;;;;6148568;23;20702;-42
2023/08/30 13:34:45;;;;;;;3.63;0.90;;;;;;;;;;6174450;23;20012;-43
2023/08/30 13:37:13;;;;;;;6.72;1.00;;;;;;;;;;6173655;23;20032;-42
2023/08/30 13:39:41;;;;;;;3.13;0.88;;;;;;;;;;6187588;23;20517;-43
2023/08/30 13:42:10;;;;;;;5.70;1.30;;;;;;;;;;6158910;23;20114;-41
2023/08/30 13:44:38;;;;;;;4.60;1.02;;;;;;;;;;6170250;23;20021;-42
2023/08/30 13:47:06;;;;;;;4.93;1.30;;;;;;;;;;6140837;23;20032;-42
2023/08/30 13:49:37;;;;;;;4.78;0.88;;;;;;;;;;6180436;23;20024;-41
2023/08/30 13:52:06;;;;;;;5.82;0.85;;;;;;;;;;6179684;23;20012;-43
2023/08/30 13:54:34;;;;;;;4.68;1.50;;;;;;;;;;6186325;23;20074;-41
2023/08/30 13:57:03;;;;;;;6.85;1.35;;;;;;;;;;6171447;23;20020;-41
2023/08/30 13:59:32;;;;;;;5.13;1.40;;;;;;;;;;6181059;23;20012;-42
2023/08/30 14:02:03;;;;;;;4.25;1.40;;;;;;;;;;6102731;23;20017;-41
2023/08/30 14:04:33;;;;;;;5.45;1.23;;;;;;;;;;6145195;23;20071;-43
2023/08/30 14:07:03;;;;;;;4.68;1.02;;;;;;;;;;6153638;23;20013;-42
2023/08/30 14:09:32;;;;;;;3.88;0.95;;;;;;;;;;6168405;23;20645;-42
2023/08/30 14:12:00;;;;;;;6.47;0.80;;;;;;;;;;6143589;23;20597;-41
2023/08/30 14:14:28;;;;;;;4.13;1.20;;;;;;;;;;6176126;23;20027;-42
2023/08/30 14:16:57;;;;;;;7.60;1.30;;;;;;;;;;6156542;23;20062;-41
2023/08/30 14:19:25;;;;;;;4.20;1.02;;;;;;;;;;6159709;23;20432;-42
2023/08/30 14:21:55;;;;;;;6.07;0.88;;;;;;;;;;6137944;23;20257;-42
2023/08/30 14:24:23;;;;;;;6.90;1.40;;;;;;;;;;6159974;23;20017;-42
2023/08/30 14:26:50;;;;;;;4.63;1.15;;;;;;;;;;6132361;23;20756;-46
2023/08/30 14:29:21;;;;;;;5.63;0.93;;;;;;;;;;6142258;23;20401;-44
2023/08/30 14:31:50;;;;;;;7.25;1.20;;;;;;;;;;6160308;23;20021;-43
2023/08/30 14:34:20;;;;;;;4.75;1.20;;;;;;;;;;6167770;23;20049;-43
2023/08/30 14:36:48;;;;;;;3.90;1.10;;;;;;;;;;6155212;23;20029;-42
2023/08/30 14:39:16;;;;;;;4.82;1.20;;;;;;;;;;6167887;23;20020;-43
2023/08/30 14:41:44;;;;;;;4.05;1.00;;;;;;;;;;6124578;23;20578;-43
2023/08/30 14:44:14;;;;;;;4.15;1.33;;;;;;;;;;6127010;23;20696;-41
2023/08/30 14:46:42;;;;;;;4.45;1.50;;;;;;;;;;6160584;23;20027;-42
2023/08/30 14:49:10;;;;;;;4.70;1.27;;;;;;;;;;6151965;23;20618;-43